Terminal Aerodrome Forecast
Issued by NWS Quad Cities IA IL

Home | Current Version | Previous Version | Text Only | Print | Product List | Glossary On
Versions: 1 2 3 4 5 6 7 8 9 10 11 12 13 14 15 16 17 18 19 20 21
000
FTUS43 KDVN 181600 AAC
TAFDBQ
TAF AMD
KDBQ 181605Z 1816/1912 22010KT 5SM BR BKN008
      TEMPO 1816/1818 6SM HZ SCT008
     FM181800 22010KT P6SM SCT020
      TEMPO 1900/1904 3SM -TSRA BR BKN025CB
     FM190400 24005KT 6SM BR SCT150=

USA.gov is the U.S. government's official web portal to all federal, state and local government web resources and services.